Time;durP1;ratioP1;P1;durP2;ratioP2;P2;SDS_P1;SDS_P2;PMS_P1;PMS_P2;Temp;Humidity;BMP_temperature;BMP_pressure;BME280_temperature;BME280_humidity;BME280_pressure;Samples;Min_cycle;Max_cycle;Signal;HPM_P1;HPM_P2
2022/11/14 00:01:13;;;;;;;45.83;22.63;;;6.80;99.90;;;;;;5196355;28;20223;-74
2022/11/14 00:04:07;;;;;;;45.10;21.27;;;6.90;99.90;;;;;;5174269;28;20461;-76
2022/11/14 00:06:59;;;;;;;43.22;22.65;;;6.90;99.90;;;;;;5147879;28;20080;-76
2022/11/14 00:09:52;;;;;;;43.55;21.05;;;6.90;99.90;;;;;;5172272;28;20034;-74
2022/11/14 00:12:47;;;;;;;46.53;22.48;;;6.90;99.90;;;;;;5192089;28;20047;-74
2022/11/14 00:15:40;;;;;;;45.15;22.30;;;6.90;99.90;;;;;;5208486;28;20029;-76
2022/11/14 00:18:37;;;;;;;44.00;22.42;;;6.90;99.90;;;;;;5186914;28;20044;-74
2022/11/14 00:21:28;;;;;;;53.38;25.08;;;7.00;99.90;;;;;;5187121;28;20022;-74
2022/11/14 00:24:20;;;;;;;47.95;22.45;;;6.90;99.90;;;;;;5186414;28;20040;-74
2022/11/14 00:27:11;;;;;;;45.83;23.55;;;6.90;99.90;;;;;;5187423;28;20351;-74
2022/11/14 00:30:04;;;;;;;47.55;22.92;;;6.80;99.90;;;;;;5188532;28;20315;-74
2022/11/14 00:32:55;;;;;;;47.90;23.35;;;6.80;99.90;;;;;;5187318;28;20236;-75
2022/11/14 00:35:54;;;;;;;50.42;22.55;;;6.80;99.90;;;;;;5173993;28;20373;-76
2022/11/14 00:38:45;;;;;;;49.20;23.75;;;6.90;99.90;;;;;;5187085;28;20200;-74
2022/11/14 00:41:37;;;;;;;49.72;24.90;;;6.90;99.90;;;;;;5174729;28;20128;-74
2022/11/14 00:44:31;;;;;;;48.58;22.88;;;6.90;99.90;;;;;;5166689;28;20032;-75
2022/11/14 00:47:25;;;;;;;44.65;22.55;;;7.00;99.90;;;;;;5174186;28;20030;-74
2022/11/14 00:50:18;;;;;;;43.35;23.33;;;7.10;99.90;;;;;;5203215;28;20048;-74
2022/11/14 00:53:13;;;;;;;47.90;22.85;;;7.10;99.90;;;;;;5189568;28;20034;-76
2022/11/14 00:56:05;;;;;;;43.83;23.52;;;7.00;99.90;;;;;;5161650;28;20054;-74
2022/11/14 00:58:56;;;;;;;43.30;20.90;;;7.00;99.90;;;;;;5168351;28;20211;-74
2022/11/14 01:01:50;;;;;;;47.67;22.67;;;7.00;99.90;;;;;;5177755;28;20041;-77
2022/11/14 01:04:41;;;;;;;45.35;21.08;;;7.10;99.90;;;;;;5175185;28;20052;-76
2022/11/14 01:07:33;;;;;;;42.92;22.65;;;7.20;99.90;;;;;;5188073;28;20218;-76
2022/11/14 01:10:26;;;;;;;39.22;20.60;;;7.30;99.90;;;;;;5180777;28;20036;-76
2022/11/14 01:13:18;;;;;;;42.15;20.55;;;7.30;99.90;;;;;;5181249;28;20040;-75
2022/11/14 01:16:10;;;;;;;43.35;21.05;;;7.30;99.90;;;;;;5156528;28;20328;-76
2022/11/14 01:19:02;;;;;;;39.60;20.58;;;7.30;99.90;;;;;;5167130;28;20030;-76
2022/11/14 01:21:54;;;;;;;40.70;20.92;;;7.30;99.90;;;;;;5164670;28;20038;-75
2022/11/14 01:24:46;;;;;;;39.13;20.40;;;7.20;99.90;;;;;;5178112;28;20069;-75
2022/11/14 01:27:37;;;;;;;39.92;20.23;;;7.20;99.90;;;;;;5186148;28;20022;-76
2022/11/14 01:30:37;;;;;;;38.88;20.73;;;7.20;99.90;;;;;;5186253;28;20207;-75
2022/11/14 01:33:28;;;;;;;39.30;19.67;;;7.20;99.90;;;;;;5186014;28;20034;-75
2022/11/14 01:36:28;;;;;;;37.75;19.73;;;7.30;99.90;;;;;;5166029;28;20350;-76
2022/11/14 01:39:22;;;;;;;45.90;20.98;;;7.30;99.90;;;;;;5161541;28;20033;-74
2022/11/14 01:42:18;;;;;;;42.05;19.38;;;7.40;99.90;;;;;;5187599;28;20022;-75
2022/11/14 01:45:47;;;;;;;40.72;20.50;;;7.50;99.90;;;;;;5174052;28;20028;-74
2022/11/14 01:48:43;;;;;;;39.42;19.60;;;7.50;99.90;;;;;;5189054;28;20026;-76
2022/11/14 01:51:43;;;;;;;39.67;21.42;;;7.60;99.90;;;;;;5175886;28;20029;-75
2022/11/14 01:54:47;;;;;;;35.83;19.10;;;7.50;99.90;;;;;;5183329;28;20360;-75
2022/11/14 01:57:44;;;;;;;37.75;20.88;;;7.50;99.90;;;;;;5178579;28;20326;-75
2022/11/14 02:00:42;;;;;;;36.92;19.98;;;7.40;99.90;;;;;;5189766;28;20033;-76
2022/11/14 02:03:36;;;;;;;37.67;19.30;;;7.50;99.90;;;;;;5199884;28;20338;-75
2022/11/14 02:06:30;;;;;;;41.78;20.38;;;7.50;99.90;;;;;;5158481;28;20054;-75
2022/11/14 02:09:21;;;;;;;39.40;19.90;;;7.60;99.90;;;;;;5169427;28;20038;-75
2022/11/14 02:12:17;;;;;;;32.75;18.75;;;7.60;99.90;;;;;;5189450;28;20048;-74
2022/11/14 02:15:12;;;;;;;31.30;18.15;;;7.60;99.90;;;;;;5190330;28;20504;-76
2022/11/14 02:18:06;;;;;;;33.70;19.02;;;7.70;99.90;;;;;;5189951;28;20019;-74
2022/11/14 02:20:58;;;;;;;40.13;20.02;;;7.80;99.90;;;;;;5170185;28;20038;-74
2022/11/14 02:23:52;;;;;;;35.47;19.15;;;7.70;99.90;;;;;;5169880;28;20037;-75
2022/11/14 02:26:44;;;;;;;38.17;19.92;;;7.70;99.90;;;;;;5169110;28;20346;-76
2022/11/14 02:29:38;;;;;;;35.65;19.92;;;7.70;99.90;;;;;;5168921;28;20034;-75
2022/11/14 02:32:29;;;;;;;32.80;17.65;;;7.70;99.90;;;;;;5168717;28;20044;-76
2022/11/14 02:35:28;;;;;;;34.30;18.83;;;7.80;99.90;;;;;;5181933;28;20029;-75
2022/11/14 02:38:22;;;;;;;33.63;19.90;;;7.90;99.90;;;;;;5156073;28;20231;-75
2022/11/14 02:41:16;;;;;;;34.88;18.52;;;7.80;99.90;;;;;;5189462;28;20026;-75
2022/11/14 02:44:10;;;;;;;37.00;19.40;;;7.80;99.90;;;;;;5174201;28;20034;-74
2022/11/14 02:47:03;;;;;;;35.03;18.30;;;7.70;99.90;;;;;;5176100;28;20025;-75
2022/11/14 02:49:55;;;;;;;35.55;18.92;;;7.80;99.90;;;;;;5173392;28;20033;-74
2022/11/14 02:52:49;;;;;;;34.70;19.27;;;7.70;99.90;;;;;;5195814;28;20021;-74
2022/11/14 02:55:43;;;;;;;34.42;18.67;;;7.60;99.90;;;;;;5209653;28;20448;-75
2022/11/14 02:58:37;;;;;;;40.08;20.05;;;7.70;99.90;;;;;;5192075;28;20025;-75
2022/11/14 03:01:29;;;;;;;34.63;18.27;;;7.70;99.90;;;;;;5178016;28;20063;-74
2022/11/14 03:04:20;;;;;;;31.73;18.45;;;7.60;99.90;;;;;;5155167;28;20044;-76
2022/11/14 03:07:11;;;;;;;35.08;19.90;;;7.60;99.90;;;;;;5186189;28;20032;-74
2022/11/14 03:10:03;;;;;;;36.45;19.90;;;7.60;99.90;;;;;;5194228;28;20028;-74
2022/11/14 03:12:55;;;;;;;37.65;20.58;;;7.70;99.90;;;;;;5167001;28;20030;-74
2022/11/14 03:15:49;;;;;;;35.13;18.38;;;7.70;99.90;;;;;;5174436;28;20034;-73
2022/11/14 03:18:41;;;;;;;37.03;19.60;;;7.70;99.90;;;;;;5170057;28;20033;-76
2022/11/14 03:21:32;;;;;;;35.75;18.70;;;7.70;99.90;;;;;;5173247;28;20034;-75
2022/11/14 03:24:24;;;;;;;32.70;18.08;;;7.60;99.90;;;;;;5171971;28;20220;-76
2022/11/14 03:27:20;;;;;;;35.30;18.88;;;7.70;99.90;;;;;;5186356;28;20028;-76
2022/11/14 03:30:15;;;;;;;34.47;18.42;;;7.60;99.90;;;;;;5171903;28;20036;-76
2022/11/14 03:33:07;;;;;;;30.92;17.95;;;7.60;99.90;;;;;;5191119;28;20220;-75
2022/11/14 03:36:03;;;;;;;32.42;19.15;;;7.60;99.90;;;;;;5192015;28;20033;-75
2022/11/14 03:38:57;;;;;;;40.30;18.67;;;7.50;99.90;;;;;;5192895;28;20061;-75
2022/11/14 03:41:48;;;;;;;35.28;18.73;;;7.50;99.90;;;;;;5192986;28;20026;-74
2022/11/14 03:44:40;;;;;;;35.47;19.02;;;7.40;99.90;;;;;;5192138;28;20034;-74
2022/11/14 03:47:37;;;;;;;37.33;18.80;;;7.30;99.90;;;;;;5180035;28;20034;-75
2022/11/14 03:50:31;;;;;;;34.50;19.90;;;7.30;99.90;;;;;;5165642;28;20034;-75
2022/11/14 03:53:27;;;;;;;37.67;18.90;;;7.20;99.90;;;;;;5197147;28;20040;-74
2022/11/14 03:56:23;;;;;;;37.55;20.67;;;7.20;99.90;;;;;;5182528;28;20037;-76
2022/11/14 03:59:17;;;;;;;34.42;18.65;;;7.10;99.90;;;;;;5184507;28;20404;-75
2022/11/14 04:02:11;;;;;;;34.72;19.27;;;7.10;99.90;;;;;;5187831;28;20235;-75
2022/11/14 04:05:07;;;;;;;39.50;19.77;;;7.20;99.90;;;;;;5167201;28;20250;-74
2022/11/14 04:07:59;;;;;;;39.25;19.48;;;7.30;99.90;;;;;;5184556;28;20230;-74
2022/11/14 04:10:55;;;;;;;36.92;20.92;;;7.30;99.90;;;;;;5177803;28;20030;-74
2022/11/14 04:13:54;;;;;;;37.30;19.45;;;7.20;99.90;;;;;;5190945;28;20029;-76
2022/11/14 04:16:45;;;;;;;32.25;17.92;;;7.20;99.90;;;;;;5192936;28;20038;-76
2022/11/14 04:19:39;;;;;;;38.78;20.15;;;7.20;99.90;;;;;;5191350;28;20044;-76
2022/11/14 04:22:30;;;;;;;33.97;19.02;;;7.20;99.90;;;;;;5190166;28;20056;-73
2022/11/14 04:25:21;;;;;;;33.60;18.65;;;7.00;99.90;;;;;;5174351;28;20042;-75
2022/11/14 04:28:13;;;;;;;34.42;17.77;;;7.10;99.90;;;;;;5187694;28;20029;-73
2022/11/14 04:31:07;;;;;;;33.85;17.85;;;7.10;99.90;;;;;;5172798;28;20026;-74
2022/11/14 04:34:03;;;;;;;40.10;20.45;;;7.00;99.90;;;;;;5185275;28;20219;-74
2022/11/14 04:36:55;;;;;;;32.70;18.58;;;7.00;99.90;;;;;;5188218;28;20029;-76
2022/11/14 04:39:47;;;;;;;38.60;19.13;;;7.10;99.90;;;;;;5187888;28;20024;-74
2022/11/14 04:42:40;;;;;;;38.42;18.67;;;7.10;99.90;;;;;;5187822;28;20034;-74
2022/11/14 04:45:34;;;;;;;37.10;17.95;;;7.20;99.90;;;;;;5161842;28;20131;-74
2022/11/14 04:48:28;;;;;;;35.15;19.17;;;7.10;99.90;;;;;;5173005;28;20026;-74
2022/11/14 04:51:23;;;;;;;35.70;18.33;;;7.10;99.90;;;;;;5178284;28;20038;-75
2022/11/14 04:54:17;;;;;;;36.40;18.30;;;7.10;99.90;;;;;;5174499;28;20040;-75
2022/11/14 04:57:11;;;;;;;46.15;20.85;;;7.00;99.90;;;;;;5167022;28;20074;-75
2022/11/14 05:00:04;;;;;;;39.70;18.70;;;6.90;99.90;;;;;;5179904;28;20021;-75
2022/11/14 05:02:59;;;;;;;36.70;18.83;;;6.80;99.90;;;;;;5199975;28;20049;-75
2022/11/14 05:06:01;;;;;;;31.95;18.95;;;6.80;99.90;;;;;;5192053;28;20243;-75
2022/11/14 05:08:53;;;;;;;50.50;20.20;;;6.80;99.90;;;;;;5187113;28;20254;-75
2022/11/14 05:11:45;;;;;;;45.17;20.60;;;6.70;99.90;;;;;;5196590;28;20034;-75
2022/11/14 05:14:39;;;;;;;42.25;20.58;;;6.70;99.90;;;;;;5192237;28;20033;-76
2022/11/14 05:17:36;;;;;;;58.03;19.92;;;6.60;99.90;;;;;;5167116;28;20030;-75
2022/11/14 05:20:32;;;;;;;45.75;20.75;;;6.60;99.90;;;;;;5184408;28;20133;-76
2022/11/14 05:23:26;;;;;;;44.33;20.17;;;6.50;99.90;;;;;;5168971;28;20026;-76
2022/11/14 05:26:20;;;;;;;40.13;20.03;;;6.50;99.90;;;;;;5185648;28;20038;-74
2022/11/14 05:29:11;;;;;;;47.33;20.33;;;6.50;99.90;;;;;;5174309;28;20460;-74
2022/11/14 05:32:04;;;;;;;54.13;18.77;;;6.60;99.90;;;;;;5177207;28;20021;-76
2022/11/14 05:34:56;;;;;;;57.83;19.40;;;6.50;99.90;;;;;;5171239;28;20359;-74
2022/11/14 05:37:52;;;;;;;45.83;20.52;;;6.30;99.90;;;;;;5191461;28;20337;-76
2022/11/14 05:40:46;;;;;;;55.00;21.85;;;6.30;99.90;;;;;;5173333;28;20227;-74
2022/11/14 05:43:43;;;;;;;42.20;21.33;;;6.30;99.90;;;;;;5189072;28;20315;-76
2022/11/14 05:46:37;;;;;;;79.55;23.15;;;6.40;99.90;;;;;;5181524;28;20030;-74
2022/11/14 05:49:28;;;;;;;103.40;21.95;;;6.40;99.90;;;;;;5171378;28;20026;-76
2022/11/14 05:52:19;;;;;;;62.85;21.83;;;6.30;99.90;;;;;;5186530;28;20022;-76
2022/11/14 05:55:13;;;;;;;51.35;22.33;;;6.30;99.90;;;;;;5172526;28;20040;-74
2022/11/14 05:58:08;;;;;;;93.40;21.40;;;6.30;99.90;;;;;;5170295;28;20056;-74
2022/11/14 06:01:07;;;;;;;57.28;23.63;;;6.40;99.90;;;;;;5170743;28;20048;-74
2022/11/14 06:04:00;;;;;;;48.08;22.55;;;6.40;99.90;;;;;;5184357;28;20042;-75
2022/11/14 06:06:52;;;;;;;59.40;23.10;;;6.40;99.90;;;;;;5159350;28;20084;-74
2022/11/14 06:09:43;;;;;;;86.65;24.60;;;6.40;99.90;;;;;;5191000;28;20026;-73
2022/11/14 06:12:37;;;;;;;56.15;24.52;;;6.40;99.90;;;;;;5169524;28;20041;-76
2022/11/14 06:15:28;;;;;;;66.85;23.33;;;6.50;99.90;;;;;;5179303;28;20033;-75
2022/11/14 06:18:22;;;;;;;57.95;23.30;;;6.40;99.90;;;;;;5194379;28;20033;-76
2022/11/14 06:21:21;;;;;;;57.40;23.08;;;6.50;99.90;;;;;;5187255;28;20326;-76
2022/11/14 06:24:13;;;;;;;51.78;22.95;;;6.60;99.90;;;;;;5176980;28;20052;-76
2022/11/14 06:27:06;;;;;;;52.00;23.77;;;6.60;99.90;;;;;;5173972;28;20036;-76
2022/11/14 06:29:58;;;;;;;62.08;22.90;;;6.70;99.90;;;;;;5189829;28;20044;-76
2022/11/14 06:32:59;;;;;;;105.55;24.83;;;6.70;99.90;;;;;;5188038;28;20319;-74
2022/11/14 06:35:58;;;;;;;62.08;22.63;;;6.70;99.90;;;;;;5188720;28;20325;-74
2022/11/14 06:38:49;;;;;;;54.35;21.75;;;6.70;99.90;;;;;;5173567;28;20343;-76
2022/11/14 06:41:43;;;;;;;112.32;23.92;;;6.50;99.90;;;;;;5155838;28;20339;-76
2022/11/14 06:44:36;;;;;;;58.22;22.20;;;6.50;99.90;;;;;;5183887;28;20033;-76
2022/11/14 06:47:31;;;;;;;72.47;23.95;;;6.40;99.90;;;;;;5200294;28;20039;-76
2022/11/14 06:50:25;;;;;;;64.28;21.85;;;6.40;99.90;;;;;;5169308;28;20022;-76
2022/11/14 06:53:16;;;;;;;47.75;21.65;;;6.50;99.90;;;;;;5183968;28;20056;-76
2022/11/14 06:56:12;;;;;;;72.30;22.70;;;6.40;99.90;;;;;;5162327;28;20022;-75
2022/11/14 06:59:03;;;;;;;81.78;21.85;;;6.50;99.90;;;;;;5173338;28;20021;-76
2022/11/14 07:01:58;;;;;;;53.10;21.65;;;6.50;99.90;;;;;;5184798;28;20047;-76
2022/11/14 07:04:52;;;;;;;53.58;21.08;;;6.40;99.90;;;;;;5158747;28;20052;-76
2022/11/14 07:07:49;;;;;;;64.28;21.65;;;6.40;99.90;;;;;;5186677;28;20318;-76
2022/11/14 07:10:44;;;;;;;79.40;22.50;;;6.40;99.90;;;;;;5170799;28;20030;-76
2022/11/14 07:13:36;;;;;;;99.38;21.02;;;6.50;99.90;;;;;;5185333;28;20030;-74
2022/11/14 07:16:30;;;;;;;72.05;23.75;;;6.60;99.90;;;;;;5175678;28;20037;-74
2022/11/14 07:19:21;;;;;;;63.85;22.77;;;6.50;99.90;;;;;;5173956;28;20044;-74
2022/11/14 07:22:13;;;;;;;70.00;22.95;;;6.50;99.90;;;;;;5187009;28;20037;-76
2022/11/14 07:25:07;;;;;;;78.45;23.88;;;6.60;99.90;;;;;;5162483;28;20025;-73
2022/11/14 07:27:59;;;;;;;87.05;23.58;;;6.60;99.90;;;;;;5193321;28;20805;-74
2022/11/14 07:30:53;;;;;;;74.50;23.60;;;6.60;99.90;;;;;;5173384;28;20238;-75
2022/11/14 07:33:47;;;;;;;55.40;22.73;;;6.70;99.90;;;;;;5165806;28;20041;-76
2022/11/14 07:36:38;;;;;;;90.07;23.75;;;6.60;99.90;;;;;;5179692;28;20042;-76
2022/11/14 07:39:32;;;;;;;53.92;22.67;;;6.80;99.90;;;;;;5161337;28;20349;-76
2022/11/14 07:42:27;;;;;;;78.78;22.77;;;6.80;99.90;;;;;;5160584;28;20038;-74
2022/11/14 07:45:24;;;;;;;50.17;24.55;;;7.00;99.90;;;;;;5184564;28;20029;-73
2022/11/14 07:48:22;;;;;;;50.05;22.67;;;7.10;99.90;;;;;;5187073;28;20033;-74
2022/11/14 07:51:21;;;;;;;51.63;24.38;;;7.20;99.90;;;;;;5186102;28;20050;-74
2022/11/14 07:54:15;;;;;;;63.60;25.08;;;7.30;99.90;;;;;;5175348;28;20060;-74
2022/11/14 07:57:06;;;;;;;49.28;24.20;;;7.40;99.90;;;;;;5170684;28;20040;-73
2022/11/14 07:59:58;;;;;;;43.22;23.15;;;7.40;99.90;;;;;;5173606;28;20025;-75
2022/11/14 08:02:50;;;;;;;50.85;22.23;;;7.20;99.90;;;;;;5185406;28;20048;-74
2022/11/14 08:05:45;;;;;;;48.20;23.48;;;7.20;99.90;;;;;;5156692;28;20054;-75
2022/11/14 08:08:38;;;;;;;37.45;19.88;;;7.30;99.90;;;;;;5155228;28;20038;-75
2022/11/14 08:11:47;;;;;;;43.67;21.08;;;7.40;99.90;;;;;;5145628;28;20228;-76
2022/11/14 08:14:41;;;;;;;43.05;22.20;;;7.50;99.90;;;;;;5187186;28;20033;-75
2022/11/14 08:17:38;;;;;;;47.38;23.13;;;7.60;99.90;;;;;;5203861;28;20025;-74
2022/11/14 08:20:30;;;;;;;38.97;20.58;;;7.60;99.90;;;;;;5192347;28;20040;-75
2022/11/14 08:23:25;;;;;;;47.85;22.75;;;7.70;99.90;;;;;;5172339;28;20689;-75
2022/11/14 08:26:16;;;;;;;44.97;21.20;;;7.60;99.90;;;;;;5182261;28;20044;-75
2022/11/14 08:29:10;;;;;;;55.80;22.27;;;7.60;99.90;;;;;;5184379;28;20040;-75
2022/11/14 08:32:02;;;;;;;39.53;20.77;;;7.80;99.90;;;;;;5180236;28;20345;-74
2022/11/14 08:34:54;;;;;;;50.67;21.35;;;7.80;99.90;;;;;;5186534;28;20307;-74
2022/11/14 08:37:45;;;;;;;43.65;20.85;;;7.90;99.90;;;;;;5171692;28;20366;-75
2022/11/14 08:40:39;;;;;;;38.72;21.17;;;8.20;99.90;;;;;;5164027;28;20282;-74
2022/11/14 08:43:34;;;;;;;41.00;22.40;;;7.90;99.90;;;;;;5165689;28;20053;-74
2022/11/14 08:46:25;;;;;;;45.72;22.08;;;7.90;99.90;;;;;;5152203;28;20357;-77
2022/11/14 08:49:19;;;;;;;40.35;21.38;;;7.70;99.90;;;;;;5185356;28;20030;-75
2022/11/14 08:52:10;;;;;;;41.88;21.67;;;7.40;99.90;;;;;;5185335;28;20100;-76
2022/11/14 08:55:02;;;;;;;41.88;23.00;;;7.40;99.90;;;;;;5185405;28;20032;-75
2022/11/14 08:57:56;;;;;;;44.53;22.30;;;7.50;99.90;;;;;;5179327;28;20029;-75
2022/11/14 09:00:47;;;;;;;46.63;22.33;;;7.60;99.90;;;;;;5188269;28;20394;-76
2022/11/14 09:03:40;;;;;;;41.88;22.27;;;7.60;99.90;;;;;;5184861;28;20044;-75
2022/11/14 09:06:36;;;;;;;44.15;23.13;;;7.90;99.90;;;;;;5147458;28;20049;-75
2022/11/14 09:09:28;;;;;;;12.63;9.73;;;8.00;99.90;;;;;;5163704;28;20036;-75
2022/11/14 09:12:22;;;;;;;36.75;19.70;;;8.00;99.90;;;;;;5168306;28;20044;-76
2022/11/14 09:15:13;;;;;;;41.30;22.08;;;8.30;99.90;;;;;;5184629;28;20123;-74
2022/11/14 09:18:05;;;;;;;40.63;20.17;;;8.20;99.90;;;;;;5193069;28;20029;-74
2022/11/14 09:21:05;;;;;;;38.85;20.48;;;8.40;99.90;;;;;;5186732;28;20028;-74
2022/11/14 09:23:59;;;;;;;27.80;14.07;;;8.80;99.90;;;;;;5177671;28;20068;-75
2022/11/14 09:26:51;;;;;;;34.25;17.73;;;8.80;99.90;;;;;;5189387;28;20018;-75
2022/11/14 09:29:45;;;;;;;38.88;18.92;;;8.80;99.90;;;;;;5169589;28;20054;-74
2022/11/14 09:32:36;;;;;;;35.88;18.15;;;8.90;99.90;;;;;;5181651;28;20038;-74
2022/11/14 09:35:29;;;;;;;32.08;20.05;;;9.00;99.90;;;;;;5182178;28;20460;-74
2022/11/14 09:38:21;;;;;;;35.60;20.20;;;9.00;99.90;;;;;;5166572;28;20030;-74
2022/11/14 09:41:31;;;;;;;37.15;19.02;;;9.10;99.90;;;;;;5168619;28;20032;-75
2022/11/14 09:44:38;;;;;;;31.60;16.10;;;9.40;99.90;;;;;;5184658;28;20040;-75
2022/11/14 09:47:41;;;;;;;30.13;17.33;;;9.70;99.90;;;;;;5182987;28;20037;-75
2022/11/14 09:50:39;;;;;;;29.88;17.75;;;9.80;99.90;;;;;;5183878;28;20034;-75
2022/11/14 09:53:45;;;;;;;28.80;16.98;;;9.70;99.90;;;;;;5182399;28;20063;-74
2022/11/14 09:56:36;;;;;;;29.25;16.27;;;9.80;99.90;;;;;;5169172;28;20026;-74
2022/11/14 09:59:28;;;;;;;28.73;16.63;;;10.20;99.90;;;;;;5182438;28;20025;-75
2022/11/14 10:02:26;;;;;;;29.48;17.38;;;9.90;99.90;;;;;;5192552;28;20261;-75
2022/11/14 10:05:44;;;;;;;30.80;16.95;;;10.10;99.90;;;;;;5172371;28;20060;-74
2022/11/14 10:09:02;;;;;;;30.05;17.48;;;10.40;99.90;;;;;;5185801;28;20357;-74
2022/11/14 10:11:54;;;;;;;30.67;17.15;;;10.50;99.90;;;;;;5180324;28;20032;-75
2022/11/14 10:15:15;;;;;;;35.03;18.38;;;10.90;99.90;;;;;;5188606;28;20036;-75
2022/11/14 10:18:32;;;;;;;35.70;16.95;;;11.30;99.90;;;;;;5183751;28;20021;-74
2022/11/14 10:21:53;;;;;;;30.45;17.25;;;11.70;99.90;;;;;;5187229;28;20332;-74
2022/11/14 10:25:12;;;;;;;26.70;15.40;;;11.70;99.90;;;;;;5175898;28;20627;-74
2022/11/14 10:28:15;;;;;;;30.77;18.13;;;11.30;99.90;;;;;;5191912;28;20029;-75
2022/11/14 10:31:39;;;;;;;31.08;18.08;;;10.90;99.90;;;;;;5188868;28;20038;-73
2022/11/14 10:34:43;;;;;;;34.88;18.77;;;10.80;99.90;;;;;;5188282;28;20038;-74
2022/11/14 10:38:04;;;;;;;31.03;18.07;;;10.90;99.90;;;;;;5178082;28;20033;-74
2022/11/14 10:41:04;;;;;;;28.30;16.02;;;11.40;99.90;;;;;;5178370;28;20029;-75
2022/11/14 10:43:56;;;;;;;27.63;16.25;;;11.90;99.90;;;;;;5178563;28;20018;-75
2022/11/14 10:46:55;;;;;;;22.85;14.43;;;12.10;99.90;;;;;;5179194;28;20029;-76
2022/11/14 10:49:51;;;;;;;26.48;15.60;;;12.10;99.90;;;;;;5177623;28;20050;-76
2022/11/14 10:52:45;;;;;;;27.42;16.02;;;12.30;99.90;;;;;;5188587;28;20068;-78
2022/11/14 10:55:39;;;;;;;30.67;15.43;;;12.20;99.90;;;;;;5197695;28;20043;-75
2022/11/14 10:58:30;;;;;;;25.27;14.48;;;12.30;99.90;;;;;;5194801;28;20030;-77
2022/11/14 11:01:42;;;;;;;24.85;14.85;;;12.60;99.90;;;;;;5177379;28;20373;-76
2022/11/14 11:04:49;;;;;;;25.80;14.80;;;12.30;99.90;;;;;;5182898;28;20077;-75
2022/11/14 11:14:19;;;;;;;23.98;13.93;;;11.40;99.90;;;;;;5205536;28;20023;-76
2022/11/14 11:17:17;;;;;;;25.02;14.98;;;11.60;99.90;;;;;;5192821;28;20044;-76
2022/11/14 11:20:31;;;;;;;28.05;15.90;;;11.70;99.90;;;;;;5196061;28;20417;-78
2022/11/14 11:23:30;;;;;;;27.92;15.63;;;11.70;99.90;;;;;;5190168;28;20275;-78
2022/11/14 11:26:33;;;;;;;28.65;16.02;;;11.90;99.90;;;;;;5176754;28;20048;-79
2022/11/14 11:29:30;;;;;;;26.30;14.63;;;11.90;99.90;;;;;;5178488;28;20030;-76
2022/11/14 11:32:28;;;;;;;25.40;15.20;;;11.70;99.90;;;;;;5202933;28;20063;-77
2022/11/14 11:35:19;;;;;;;27.83;15.25;;;11.50;99.90;;;;;;5197217;28;20222;-76
2022/11/14 11:38:15;;;;;;;27.08;15.05;;;11.40;99.90;;;;;;5180496;28;20250;-77
2022/11/14 11:41:15;;;;;;;23.77;13.35;;;11.30;99.90;;;;;;5201908;28;20025;-74
2022/11/14 11:44:17;;;;;;;29.48;13.50;;;11.50;99.90;;;;;;5182575;28;20029;-73
2022/11/14 11:47:14;;;;;;;25.02;13.65;;;13.00;99.90;;;;;;5188739;28;20034;-73
2022/11/14 11:50:14;;;;;;;25.23;14.57;;;13.40;99.90;;;;;;5180866;28;20235;-73
2022/11/14 11:53:11;;;;;;;23.92;14.82;;;12.10;99.90;;;;;;5182881;28;20400;-74
2022/11/14 11:56:14;;;;;;;42.53;15.68;;;12.20;99.90;;;;;;5186463;28;20030;-75
2022/11/14 11:59:39;;;;;;;26.73;13.40;;;12.30;99.90;;;;;;5177331;28;20030;-75
2022/11/14 12:02:31;;;;;;;30.10;15.43;;;12.00;99.90;;;;;;5167366;28;20037;-72
2022/11/14 12:05:33;;;;;;;22.13;13.30;;;11.80;99.90;;;;;;5170323;28;20152;-72
2022/11/14 12:08:39;;;;;;;24.27;13.13;;;11.60;99.90;;;;;;5166368;28;20036;-77
2022/11/14 12:11:38;;;;;;;24.50;15.27;;;11.40;99.90;;;;;;5160589;28;20040;-72
2022/11/14 12:14:40;;;;;;;28.25;12.75;;;10.90;99.90;;;;;;5182796;28;20030;-72
2022/11/14 12:18:12;;;;;;;26.70;14.50;;;10.60;99.90;;;;;;5180807;28;20036;-74
2022/11/14 12:21:33;;;;;;;28.10;14.05;;;10.70;99.90;;;;;;5172806;28;20320;-72
2022/11/14 12:25:00;;;;;;;25.60;13.70;;;10.40;99.90;;;;;;5168772;28;20029;-73
2022/11/14 12:28:01;;;;;;;24.55;13.95;;;10.20;99.90;;;;;;5175673;28;20391;-73
2022/11/14 12:30:58;;;;;;;26.42;13.15;;;10.30;99.90;;;;;;5166800;28;20038;-74
2022/11/14 12:34:07;;;;;;;24.38;12.38;;;10.80;99.90;;;;;;5188103;28;20033;-74
2022/11/14 12:36:59;;;;;;;22.10;13.20;;;10.80;99.90;;;;;;5167405;28;20053;-73
2022/11/14 12:40:00;;;;;;;23.92;12.18;;;10.50;99.90;;;;;;5179915;28;20271;-74
2022/11/14 12:42:55;;;;;;;25.33;15.05;;;10.60;99.90;;;;;;5170968;28;20048;-73
2022/11/14 12:45:54;;;;;;;23.00;14.20;;;11.00;99.90;;;;;;5167932;28;20026;-74
2022/11/14 12:48:46;;;;;;;25.92;13.68;;;10.90;99.90;;;;;;5197545;28;20030;-74
2022/11/14 12:51:52;;;;;;;31.23;15.32;;;10.80;99.90;;;;;;5184446;28;20026;-73
2022/11/14 12:54:49;;;;;;;29.63;14.70;;;10.90;99.90;;;;;;5184193;28;20052;-74
2022/11/14 12:57:58;;;;;;;22.75;13.65;;;11.00;99.90;;;;;;5174620;28;20218;-73
2022/11/14 13:00:49;;;;;;;22.30;14.07;;;10.90;99.90;;;;;;5176719;28;20032;-73
2022/11/14 13:03:47;;;;;;;19.42;12.77;;;11.30;99.90;;;;;;5175725;28;20026;-73
2022/11/14 13:06:38;;;;;;;23.27;12.52;;;11.50;99.90;;;;;;5165108;28;20038;-72
2022/11/14 13:10:07;;;;;;;20.30;10.40;;;12.50;99.90;;;;;;5176175;28;20049;-71
2022/11/14 13:22:55;;;;;;;22.98;12.82;;;14.10;99.90;;;;;;5176435;28;20026;-75
2022/11/14 13:25:49;;;;;;;22.05;14.05;;;13.10;99.90;;;;;;5175265;28;20032;-74
2022/11/14 13:28:52;;;;;;;28.55;14.70;;;11.90;99.90;;;;;;5167816;28;20048;-75
2022/11/14 13:31:51;;;;;;;27.05;15.45;;;11.70;99.90;;;;;;5169147;28;20060;-78
2022/11/14 13:35:01;;;;;;;27.45;14.70;;;11.80;99.90;;;;;;5164238;28;20042;-75
2022/11/14 13:38:20;;;;;;;27.42;15.18;;;11.50;99.90;;;;;;5165306;28;20056;-75
2022/11/14 13:41:20;;;;;;;23.67;13.63;;;11.30;99.90;;;;;;5184037;28;20017;-75
2022/11/14 13:44:17;;;;;;;24.23;14.10;;;11.60;99.90;;;;;;5176391;28;20030;-75
2022/11/14 13:47:35;;;;;;;24.85;14.68;;;12.00;99.90;;;;;;5183782;28;20318;-77
2022/11/14 13:50:36;;;;;;;28.08;15.90;;;12.00;99.90;;;;;;5171763;28;20648;-76
2022/11/14 13:53:30;;;;;;;28.23;16.25;;;11.60;99.90;;;;;;5165064;28;20076;-76
2022/11/14 13:56:40;;;;;;;29.50;15.87;;;11.10;99.90;;;;;;5181021;28;20029;-75
2022/11/14 13:59:53;;;;;;;30.30;16.02;;;11.20;99.90;;;;;;5164316;28;20481;-77
2022/11/14 14:02:44;;;;;;;29.73;16.65;;;11.10;99.90;;;;;;5175101;28;20048;-75
2022/11/14 14:06:14;;;;;;;36.83;20.38;;;10.90;99.90;;;;;;5162520;28;20086;-76
2022/11/14 14:09:20;;;;;;;29.25;17.10;;;10.40;99.90;;;;;;5172797;28;20028;-77
2022/11/14 14:12:49;;;;;;;32.90;17.15;;;10.20;99.90;;;;;;5183215;28;20040;-76
2022/11/14 14:16:06;;;;;;;34.42;19.15;;;9.70;99.90;;;;;;5172764;28;20037;-78
2022/11/14 14:19:15;;;;;;;39.03;21.35;;;9.30;99.90;;;;;;5183526;28;20034;-78
2022/11/14 14:22:28;;;;;;;36.33;19.75;;;8.90;99.90;;;;;;5173008;28;20036;-78
2022/11/14 14:25:37;;;;;;;33.67;18.02;;;8.60;99.90;;;;;;5184051;28;20041;-76
2022/11/14 14:28:40;;;;;;;34.53;17.08;;;8.40;99.90;;;;;;5170851;28;20033;-76
2022/11/14 14:31:40;;;;;;;35.17;18.98;;;8.30;99.90;;;;;;5193773;28;20035;-76
2022/11/14 14:34:33;;;;;;;42.88;22.17;;;8.10;99.90;;;;;;5186813;28;20462;-76
2022/11/14 14:37:31;;;;;;;41.25;21.15;;;8.00;99.90;;;;;;5173630;28;20036;-78
2022/11/14 14:40:27;;;;;;;41.47;21.00;;;8.00;99.90;;;;;;5165749;28;20034;-77
2022/11/14 14:43:30;;;;;;;43.15;21.73;;;7.80;99.90;;;;;;5179575;28;20030;-77
2022/11/14 14:46:30;;;;;;;43.50;23.75;;;7.80;99.90;;;;;;5177171;28;20033;-77
2022/11/14 14:49:38;;;;;;;45.05;22.88;;;7.70;99.90;;;;;;5162906;28;20049;-76
2022/11/14 14:52:32;;;;;;;42.30;22.98;;;7.70;99.90;;;;;;5183309;28;20030;-77
2022/11/14 14:55:32;;;;;;;40.83;22.38;;;7.60;99.90;;;;;;5163148;28;20034;-76
2022/11/14 14:58:31;;;;;;;50.75;24.77;;;7.60;99.90;;;;;;5179718;28;20037;-76
2022/11/14 15:01:34;;;;;;;46.72;22.67;;;7.60;99.90;;;;;;5172527;28;20045;-76
2022/11/14 15:04:29;;;;;;;47.90;24.63;;;7.70;99.90;;;;;;5175212;28;20330;-77
2022/11/14 15:07:25;;;;;;;42.72;20.50;;;7.70;99.90;;;;;;5180695;28;20034;-77
2022/11/14 15:10:29;;;;;;;45.75;23.63;;;7.60;99.90;;;;;;5159131;28;20239;-76
2022/11/14 15:13:24;;;;;;;52.22;24.05;;;7.60;99.90;;;;;;5165273;28;20346;-76
2022/11/14 15:16:15;;;;;;;49.90;23.63;;;7.60;99.90;;;;;;5180821;28;20036;-76
2022/11/14 15:19:15;;;;;;;47.85;23.98;;;7.60;99.90;;;;;;5148121;28;20443;-76
2022/11/14 15:22:18;;;;;;;51.90;24.30;;;7.50;99.90;;;;;;5162219;28;20315;-76